Time;durP1;ratioP1;P1;durP2;ratioP2;P2;SDS_P1;SDS_P2;PMS_P1;PMS_P2;Temp;Humidity;BMP_temperature;BMP_pressure;BME280_temperature;BME280_humidity;BME280_pressure;Samples;Min_cycle;Max_cycle;Signal;HPM_P1;HPM_P2
2024/04/16 00:02:20;;;;;;;4.63;2.80;;;;;;;5.85;100.00;99360.00;9104939;26;20006;-81
2024/04/16 00:06:22;;;;;;;4.10;3.13;;;;;;;5.76;100.00;99359.28;9104954;26;19998;-80
2024/04/16 00:10:24;;;;;;;3.55;2.03;;;;;;;5.71;100.00;99362.44;9105004;26;20450;-80
2024/04/16 00:14:25;;;;;;;4.95;2.80;;;;;;;5.80;100.00;99355.25;9104047;26;20001;-80
2024/04/16 00:18:27;;;;;;;4.13;2.60;;;;;;;5.72;100.00;99365.94;9074138;26;20072;-81
2024/04/16 00:22:29;;;;;;;9.35;3.13;;;;;;;5.67;100.00;99355.03;9103280;26;20017;-80
2024/04/16 00:26:31;;;;;;;5.63;3.10;;;;;;;5.75;100.00;99350.47;9065635;26;20018;-80
2024/04/16 00:30:32;;;;;;;3.33;2.25;;;;;;;5.60;100.00;99359.41;9069504;26;20017;-80
2024/04/16 00:34:34;;;;;;;7.68;2.67;;;;;;;5.74;100.00;99355.97;9073136;26;20026;-81
2024/04/16 00:38:36;;;;;;;5.28;3.70;;;;;;;5.78;100.00;99357.25;9101246;26;20002;-81
2024/04/16 00:42:37;;;;;;;5.32;3.55;;;;;;;5.80;100.00;99352.59;9101756;26;20010;-81
2024/04/16 00:46:39;;;;;;;3.55;2.08;;;;;;;5.67;100.00;99350.53;9067671;26;20074;-80
2024/04/16 00:50:47;;;;;;;3.80;2.58;;;;;;;5.70;100.00;99365.28;9098565;26;20034;-81
2024/04/16 00:54:49;;;;;;;6.75;4.13;;;;;;;5.80;100.00;99354.41;9098274;26;19998;-80
2024/04/16 00:58:50;;;;;;;11.18;5.18;;;;;;;5.91;100.00;99369.97;9058149;26;20018;-81
2024/04/16 01:02:52;;;;;;;6.82;3.75;;;;;;;5.72;100.00;99361.44;9081601;26;20466;-81
2024/04/16 01:06:54;;;;;;;6.07;3.83;;;;;;;5.87;100.00;99368.63;9101995;26;20070;-80
2024/04/16 01:10:55;;;;;;;7.75;3.33;;;;;;;5.73;100.00;99368.44;9099410;26;20006;-80
2024/04/16 01:14:57;;;;;;;10.73;4.22;;;;;;;5.76;100.00;99375.22;9065525;26;19998;-80
2024/04/16 01:19:02;;;;;;;3.95;3.05;;;;;;;5.49;100.00;99368.59;9065918;26;20031;-80
2024/04/16 01:23:04;;;;;;;4.03;2.78;;;;;;;5.58;100.00;99367.56;9065322;26;20002;-80
2024/04/16 01:27:06;;;;;;;5.50;2.50;;;;;;;5.53;100.00;99369.06;9096258;26;20028;-81
2024/04/16 01:31:09;;;;;;;5.20;2.67;;;;;;;5.58;100.00;99372.03;9096996;26;20039;-80
2024/04/16 01:35:10;;;;;;;5.25;2.80;;;;;;;5.59;100.00;99384.31;9095765;26;20078;-80
2024/04/16 01:39:12;;;;;;;8.73;3.17;;;;;;;5.67;100.00;99374.44;9094909;26;20071;-81
2024/04/16 01:43:14;;;;;;;5.78;3.20;;;;;;;5.59;100.00;99379.00;9062213;26;20016;-81
2024/04/16 01:47:16;;;;;;;4.95;2.90;;;;;;;5.33;100.00;99372.19;9063608;26;20074;-80
2024/04/16 01:51:18;;;;;;;5.85;3.33;;;;;;;5.38;100.00;99384.94;9100982;26;20010;-81
2024/04/16 01:55:19;;;;;;;6.78;2.90;;;;;;;5.22;100.00;99382.44;9099243;26;20013;-79
2024/04/16 01:59:21;;;;;;;4.38;2.28;;;;;;;5.39;100.00;99384.81;9096133;26;20006;-79
2024/04/16 02:03:23;;;;;;;5.13;3.08;;;;;;;5.13;100.00;99386.94;9101105;26;19998;-79
2024/04/16 02:07:26;;;;;;;4.97;2.92;;;;;;;5.19;100.00;99374.78;9069144;26;20009;-80
2024/04/16 02:11:28;;;;;;;7.82;3.03;;;;;;;5.04;100.00;99382.69;9075868;26;20016;-79
2024/04/16 02:15:30;;;;;;;5.80;3.20;;;;;;;5.08;100.00;99379.50;9072903;26;20510;-79
2024/04/16 02:19:34;;;;;;;4.78;2.65;;;;;;;5.04;100.00;99386.19;9106036;26;20021;-79
2024/04/16 02:23:36;;;;;;;11.40;2.45;;;;;;;4.91;100.00;99382.41;9102572;26;20009;-80
2024/04/16 02:27:37;;;;;;;3.50;2.25;;;;;;;4.81;100.00;99385.28;9100443;26;20042;-80
2024/04/16 02:31:39;;;;;;;5.65;2.45;;;;;;;4.90;100.00;99389.56;9098928;26;19998;-81
2024/04/16 02:35:41;;;;;;;4.65;1.88;;;;;;;4.91;100.00;99385.06;9067913;26;20006;-80
2024/04/16 02:39:43;;;;;;;8.15;3.92;;;;;;;5.02;100.00;99385.50;9099042;26;20002;-80
2024/04/16 02:43:44;;;;;;;4.03;1.95;;;;;;;4.70;100.00;99383.00;9066943;26;20002;-80
2024/04/16 02:47:46;;;;;;;3.38;1.90;;;;;;;4.79;100.00;99381.97;9067719;26;20018;-79
2024/04/16 02:51:48;;;;;;;4.25;2.47;;;;;;;4.72;100.00;99373.88;9099229;26;20002;-80
2024/04/16 02:55:49;;;;;;;3.47;1.83;;;;;;;4.43;100.00;99369.16;9099162;26;20002;-80
2024/04/16 02:59:51;;;;;;;8.02;3.25;;;;;;;4.44;100.00;99367.34;9098672;26;20003;-79
2024/04/16 03:03:55;;;;;;;2.97;1.92;;;;;;;4.34;100.00;99370.19;9099193;26;20055;-80
2024/04/16 03:07:57;;;;;;;2.97;2.20;;;;;;;4.14;100.00;99360.94;9098591;26;20403;-79
2024/04/16 03:11:59;;;;;;;4.65;2.40;;;;;;;4.32;100.00;99363.38;9104557;26;20370;-80
2024/04/16 03:16:07;;;;;;;4.57;2.47;;;;;;;4.26;100.00;99367.56;9106955;26;20006;-80
2024/04/16 03:20:09;;;;;;;6.57;2.87;;;;;;;4.37;100.00;99361.06;9105640;26;20534;-80
2024/04/16 03:24:11;;;;;;;5.07;2.47;;;;;;;4.42;100.00;99359.56;9071473;26;20075;-80
2024/04/16 03:28:13;;;;;;;2.55;1.50;;;;;;;4.40;100.00;99345.66;9068279;26;20359;-80
2024/04/16 03:32:14;;;;;;;3.25;1.67;;;;;;;4.40;100.00;99347.47;9100441;26;20014;-80
2024/04/16 03:36:16;;;;;;;3.83;1.67;;;;;;;4.53;100.00;99345.09;9104393;26;20002;-80
2024/04/16 03:40:18;;;;;;;3.72;2.00;;;;;;;4.64;100.00;99347.38;9102778;26;20020;-80
2024/04/16 03:44:19;;;;;;;9.32;1.65;;;;;;;4.47;100.00;99348.44;9100605;26;19999;-79
2024/04/16 03:48:23;;;;;;;1.85;1.17;;;;;;;4.55;100.00;99348.41;9069414;26;20026;-79
2024/04/16 03:52:25;;;;;;;4.15;2.05;;;;;;;4.72;100.00;99352.66;9089608;26;20051;-79
2024/04/16 03:56:27;;;;;;;3.92;2.00;;;;;;;4.48;100.00;99356.22;9086882;26;20030;-80
2024/04/16 04:04:50;;;;;;;1.80;1.48;;;;;;;4.71;100.00;99358.97;9072831;26;19994;-80
2024/04/16 04:08:52;;;;;;;2.60;1.90;;;;;;;4.54;100.00;99375.94;9100012;26;20389;-81
2024/04/16 04:12:55;;;;;;;5.40;2.90;;;;;;;4.87;100.00;99365.19;9100692;26;20014;-81
2024/04/16 04:16:57;;;;;;;8.75;3.28;;;;;;;4.71;100.00;99361.63;9099848;26;20002;-81
2024/04/16 04:20:59;;;;;;;7.43;2.00;;;;;;;4.67;100.00;99365.59;9066596;26;20010;-82
2024/04/16 04:25:00;;;;;;;3.20;1.27;;;;;;;4.77;100.00;99363.56;9066172;26;20003;-81
2024/04/16 04:29:02;;;;;;;6.95;2.28;;;;;;;4.77;100.00;99368.88;9067449;26;20002;-81
2024/04/16 04:33:04;;;;;;;4.10;3.00;;;;;;;4.94;100.00;99366.13;9104875;26;20381;-81
2024/04/16 04:37:06;;;;;;;2.97;2.28;;;;;;;4.91;100.00;99369.97;9106929;26;20436;-80
2024/04/16 04:41:11;;;;;;;3.80;2.28;;;;;;;4.89;100.00;99374.63;9071443;26;20042;-80
2024/04/16 04:45:13;;;;;;;4.93;2.85;;;;;;;5.15;100.00;99369.00;9104439;26;20439;-80
2024/04/16 04:49:15;;;;;;;3.00;2.47;;;;;;;5.07;100.00;99356.63;9070955;26;20036;-80
2024/04/16 04:53:17;;;;;;;2.42;2.08;;;;;;;5.03;100.00;99375.69;9102407;26;20392;-80
2024/04/16 04:57:19;;;;;;;1.63;1.52;;;;;;;4.96;100.00;99367.63;9102734;26;20005;-79
2024/04/16 05:01:22;;;;;;;2.90;2.30;;;;;;;4.82;100.00;99374.47;9071634;26;20010;-81
2024/04/16 05:05:24;;;;;;;7.07;3.33;;;;;;;4.75;100.00;99373.53;9074757;26;20062;-82
2024/04/16 05:09:26;;;;;;;11.73;3.05;;;;;;;4.56;100.00;99373.94;9070173;26;20014;-82
2024/04/16 05:13:28;;;;;;;5.63;3.38;;;;;;;4.54;100.00;99371.47;9069692;26;20374;-83
2024/04/16 05:17:30;;;;;;;3.55;2.53;;;;;;;4.66;100.00;99376.38;9069372;26;20009;-83
2024/04/16 05:21:34;;;;;;;6.30;3.22;;;;;;;4.63;100.00;99371.41;9069087;26;20003;-83
2024/04/16 05:25:36;;;;;;;6.55;4.22;;;;;;;4.84;100.00;99371.66;9070179;26;20002;-83
2024/04/16 05:29:38;;;;;;;6.10;3.13;;;;;;;4.69;100.00;99370.75;9070866;26;20070;-83
2024/04/16 05:33:39;;;;;;;3.22;2.40;;;;;;;4.65;100.00;99350.84;9073528;26;19997;-83
2024/04/16 05:37:43;;;;;;;8.65;2.97;;;;;;;4.80;100.00;99357.06;9079277;26;20013;-83
2024/04/16 05:41:45;;;;;;;13.25;3.60;;;;;;;5.21;100.00;99355.03;9080396;26;20006;-83
2024/04/16 05:45:48;;;;;;;3.78;2.65;;;;;;;5.41;100.00;99352.75;9111156;26;20457;-83
2024/04/16 05:49:50;;;;;;;4.15;2.70;;;;;;;5.42;100.00;99349.09;9080435;26;20011;-83
2024/04/16 05:53:55;;;;;;;8.93;3.45;;;;;;;4.99;100.00;99359.31;9082509;26;20018;-83
2024/04/16 05:57:57;;;;;;;4.20;3.00;;;;;;;4.97;100.00;99345.38;9051589;26;20048;-83
2024/04/16 06:01:59;;;;;;;4.15;2.70;;;;;;;5.05;100.00;99348.00;9023880;26;20053;-83
2024/04/16 06:06:03;;;;;;;6.57;3.38;;;;;;;5.10;100.00;99344.81;9062762;26;19998;-83
2024/04/16 06:10:13;;;;;;;;;;;;;;;5.16;100.00;99360.03;9087456;26;19998;-83
2024/04/16 06:14:14;;;;;;;4.55;3.00;;;;;;;5.06;100.00;99352.31;9082676;26;19948;-82
2024/04/16 06:18:16;;;;;;;7.25;4.10;;;;;;;-141.39;100.00;61527.31;9081669;26;19994;-83
2024/04/16 06:22:18;;;;;;;7.25;3.88;;;;;;;5.22;100.00;99339.94;9082970;26;20017;-83
2024/04/16 06:26:20;;;;;;;8.80;4.20;;;;;;;5.20;100.00;99345.41;9081713;26;20005;-83
2024/04/16 06:30:22;;;;;;;5.55;2.95;;;;;;;5.05;100.00;99347.19;9082948;26;19998;-83
2024/04/16 06:34:24;;;;;;;6.03;3.53;;;;;;;5.03;100.00;99347.34;9076669;26;20002;-84
2024/04/16 06:38:26;;;;;;;10.13;4.20;;;;;;;5.06;100.00;99351.47;9073465;26;20009;-84
2024/04/16 06:42:29;;;;;;;5.40;3.25;;;;;;;5.22;100.00;99338.09;9075614;26;20002;-83
2024/04/16 06:46:32;;;;;;;9.10;4.68;;;;;;;5.28;100.00;99334.72;9071466;26;20006;-83
2024/04/16 06:50:36;;;;;;;6.47;4.20;;;;;;;5.39;100.00;99339.63;9024866;26;20035;-82
2024/04/16 06:54:38;;;;;;;4.65;3.33;;;;;;;5.36;100.00;99352.44;9082932;26;20319;-82
2024/04/16 06:58:40;;;;;;;4.07;2.38;;;;;;;5.33;100.00;99358.09;9107266;26;20001;-82
2024/04/16 07:02:44;;;;;;;5.78;2.58;;;;;;;5.64;100.00;99342.09;9073006;26;20002;-82
2024/04/16 07:06:46;;;;;;;4.78;1.77;;;;;;;5.57;100.00;99352.63;9073183;26;20381;-82
2024/04/16 07:10:49;;;;;;;5.20;3.65;;;;;;;5.81;100.00;99356.06;9073034;26;20017;-82
2024/04/16 07:14:51;;;;;;;6.97;3.70;;;;;;;5.90;100.00;99352.34;9055846;26;20006;-82
2024/04/16 07:18:53;;;;;;;6.03;2.75;;;;;;;5.84;100.00;99348.56;9087015;26;20056;-82
2024/04/16 07:23:06;;;;;;;7.80;3.05;;;;;;;5.81;100.00;99362.22;9085895;26;20152;-82
2024/04/16 07:27:08;;;;;;;5.18;3.63;;;;;;;6.02;100.00;99349.06;9106312;26;20051;-83
2024/04/16 07:31:10;;;;;;;8.88;2.72;;;;;;;6.04;100.00;99364.84;9073593;26;19994;-82
2024/04/16 07:35:18;;;;;;;6.57;2.70;;;;;;;6.10;100.00;99379.28;9075893;26;20010;-82
2024/04/16 07:39:20;;;;;;;7.00;2.80;;;;;;;6.16;100.00;99366.06;9074975;26;20399;-82
2024/04/16 07:43:25;;;;;;;10.23;2.65;;;;;;;6.37;100.00;99377.81;9108180;26;20078;-82
2024/04/16 07:47:26;;;;;;;11.10;3.20;;;;;;;6.43;100.00;99379.78;9101499;26;20014;-83
2024/04/16 07:51:28;;;;;;;8.35;3.40;;;;;;;6.34;100.00;99382.50;9077669;26;20014;-83
2024/04/16 07:55:30;;;;;;;3.85;2.00;;;;;;;6.21;100.00;99384.13;9066112;26;20040;-83
2024/04/16 07:59:35;;;;;;;4.43;2.55;;;;;;;6.17;100.00;99398.81;9040862;26;20048;-83
2024/04/16 08:03:40;;;;;;;9.65;2.90;;;;;;;6.00;100.00;99393.63;9041483;26;20019;-83
2024/04/16 08:07:45;;;;;;;3.97;2.65;;;;;;;5.92;100.00;99411.50;9042510;26;20327;-82
2024/04/16 08:11:47;;;;;;;5.70;2.80;;;;;;;5.84;100.00;99420.31;9072853;26;20014;-82
2024/04/16 08:15:51;;;;;;;3.53;2.03;;;;;;;5.79;100.00;99417.38;9074491;26;20022;-82
2024/04/16 08:19:53;;;;;;;3.70;2.60;;;;;;;6.00;100.00;99422.06;9074850;26;20012;-82
2024/04/16 08:23:58;;;;;;;6.35;3.00;;;;;;;5.95;100.00;99427.94;9046346;26;20102;-81
2024/04/16 08:28:01;;;;;;;7.60;2.83;;;;;;;6.18;100.00;99419.06;9077748;26;20014;-81
2024/04/16 08:32:03;;;;;;;3.58;2.70;;;;;;;6.24;100.00;99419.16;9107631;26;19998;-82
2024/04/16 08:36:09;;;;;;;5.78;2.78;;;;;;;6.11;100.00;99426.13;9078423;26;20014;-82
2024/04/16 08:40:11;;;;;;;4.70;2.75;;;;;;;6.10;100.00;99427.16;9076919;26;19994;-82
2024/04/16 08:44:14;;;;;;;9.18;3.10;;;;;;;6.26;100.00;99427.00;9077094;26;20403;-82
2024/04/16 08:48:17;;;;;;;5.93;2.70;;;;;;;6.39;100.00;99434.34;9076428;26;19998;-82
2024/04/16 08:52:21;;;;;;;6.72;3.00;;;;;;;6.65;100.00;99430.25;9047101;26;20021;-82
2024/04/16 08:56:25;;;;;;;6.75;2.83;;;;;;;6.99;100.00;99430.69;9076004;26;20023;-82
2024/04/16 09:00:27;;;;;;;6.35;2.13;;;;;;;7.12;98.83;99429.03;9075977;26;20006;-81
2024/04/16 09:04:36;;;;;;;3.58;2.05;;;;;;;7.35;90.60;99441.38;9074749;26;20017;-82
2024/04/16 09:08:39;;;;;;;2.75;1.65;;;;;;;7.23;84.62;99428.53;9105894;26;20002;-81
2024/04/16 09:12:44;;;;;;;6.40;2.42;;;;;;;7.43;85.90;99430.59;9074894;26;20043;-81
2024/04/16 09:16:47;;;;;;;5.75;2.92;;;;;;;7.55;85.96;99437.91;9105084;26;19994;-81
2024/04/16 09:20:50;;;;;;;4.35;1.83;;;;;;;7.53;86.05;99437.28;9072019;26;20006;-80
2024/04/16 09:24:52;;;;;;;9.85;2.60;;;;;;;8.08;85.61;99438.41;9071431;26;20060;-80
2024/04/16 09:28:54;;;;;;;4.38;1.92;;;;;;;8.42;76.74;99445.69;9103957;26;20002;-81
2024/04/16 09:32:58;;;;;;;4.70;2.10;;;;;;;8.52;73.39;99445.38;9072445;26;20058;-81
2024/04/16 09:37:00;;;;;;;4.40;1.50;;;;;;;8.41;72.58;99452.06;9101843;26;20048;-82
2024/04/16 09:41:01;;;;;;;10.45;2.38;;;;;;;8.34;73.26;99453.03;9008308;26;20365;-82
2024/04/16 09:45:05;;;;;;;3.88;1.67;;;;;;;7.92;75.08;99461.84;8976741;26;20122;-82
2024/04/16 09:49:09;;;;;;;4.43;1.63;;;;;;;7.79;77.50;99460.69;9037636;26;20003;-82
2024/04/16 09:53:11;;;;;;;3.45;1.63;;;;;;;7.59;77.95;99457.00;9066105;26;20013;-82
2024/04/16 09:57:15;;;;;;;1.65;1.30;;;;;;;7.16;86.09;99445.44;9111549;26;20002;-82
2024/04/16 10:01:18;;;;;;;2.53;1.30;;;;;;;7.19;90.92;99439.75;9108471;26;20006;-81
2024/04/16 10:05:20;;;;;;;4.55;2.65;;;;;;;7.98;93.76;99442.41;9102846;26;20002;-82
2024/04/16 10:09:24;;;;;;;2.78;1.33;;;;;;;8.09;76.10;99440.06;9099640;26;19998;-82
2024/04/16 10:13:27;;;;;;;6.93;1.85;;;;;;;8.31;75.22;99451.53;9097568;26;20025;-82
2024/04/16 10:17:29;;;;;;;6.85;2.13;;;;;;;8.36;72.19;99449.16;9097264;26;20002;-82
2024/04/16 10:21:38;;;;;;;5.38;1.38;;;;;;;8.53;70.42;99446.19;9099153;26;20006;-82
2024/04/16 10:25:48;;;;;;;5.85;1.40;;;;;;;8.49;67.18;99442.25;9068707;26;20470;-81
2024/04/16 10:30:11;;;;;;;;;;;;;;;8.43;67.78;99449.19;9070271;26;20017;-82
2024/04/16 10:34:19;;;;;;;7.20;1.40;;;;;;;8.79;66.41;99442.84;9100466;26;19930;-82
2024/04/16 10:38:24;;;;;;;4.57;1.50;;;;;;;8.94;63.98;99431.03;9102289;26;20002;-82
2024/04/16 10:42:29;;;;;;;2.92;1.15;;;;;;;9.18;63.82;99440.38;9069335;26;20021;-82
2024/04/16 10:46:31;;;;;;;4.93;2.05;;;;;;;9.28;62.57;99448.03;9112629;26;19998;-82
2024/04/16 10:50:38;;;;;;;2.47;1.40;;;;;;;9.41;59.41;99433.91;9113205;26;20017;-82
2024/04/16 10:54:40;;;;;;;2.00;1.20;;;;;;;9.38;60.22;99437.78;9106910;26;20013;-83
2024/04/16 10:58:41;;;;;;;4.38;1.35;;;;;;;9.52;61.01;99441.31;9104397;26;20350;-83
2024/04/16 11:02:45;;;;;;;3.72;1.13;;;;;;;8.99;59.96;99443.78;9102524;26;19998;-83
2024/04/16 11:06:47;;;;;;;6.70;1.20;;;;;;;9.38;60.74;99442.31;9100053;26;20002;-82
2024/04/16 11:10:50;;;;;;;3.65;1.25;;;;;;;8.95;58.80;99446.03;9099221;26;20013;-83
2024/04/16 11:14:52;;;;;;;4.13;1.23;;;;;;;8.73;60.20;99437.28;9068694;26;20002;-83
2024/04/16 11:18:55;;;;;;;3.28;1.33;;;;;;;9.02;61.54;99438.88;9098249;26;20011;-82
2024/04/16 11:22:58;;;;;;;1.95;1.20;;;;;;;9.04;61.35;99452.88;9067574;26;20526;-83
2024/04/16 11:27:00;;;;;;;2.92;1.45;;;;;;;9.00;62.50;99440.06;9098679;26;20323;-82
2024/04/16 11:31:02;;;;;;;5.45;1.70;;;;;;;9.13;64.43;99444.66;9099332;26;20042;-82
2024/04/16 11:35:10;;;;;;;4.47;1.30;;;;;;;9.01;62.93;99450.56;9098300;26;20025;-82
2024/04/16 11:39:12;;;;;;;4.32;1.10;;;;;;;8.93;64.33;99464.09;9068661;26;19994;-83
2024/04/16 11:43:14;;;;;;;4.65;1.40;;;;;;;8.71;65.66;99459.88;9100219;26;20020;-83
2024/04/16 11:47:16;;;;;;;4.45;1.80;;;;;;;9.05;67.13;99453.69;9096907;26;20002;-83
2024/04/16 11:51:17;;;;;;;3.35;1.30;;;;;;;8.73;68.72;99447.13;9098234;26;20016;-83
2024/04/16 11:55:19;;;;;;;4.38;1.20;;;;;;;8.93;66.99;99452.59;9064953;26;20010;-83
2024/04/16 11:59:21;;;;;;;1.00;0.82;;;;;;;8.90;67.02;99445.81;9064007;26;20041;-83
2024/04/16 12:03:23;;;;;;;2.47;1.38;;;;;;;9.36;66.66;99450.50;9099411;26;20039;-83
2024/04/16 12:07:24;;;;;;;1.63;1.40;;;;;;;9.38;62.91;99464.53;9068668;26;20014;-83
2024/04/16 12:11:26;;;;;;;4.50;1.15;;;;;;;9.10;62.32;99451.25;9106942;26;20026;-83
2024/04/16 12:15:28;;;;;;;2.95;1.30;;;;;;;9.01;61.28;99452.41;9106330;26;20174;-84
2024/04/16 12:19:30;;;;;;;3.47;1.23;;;;;;;9.21;61.30;99444.53;9108145;26;20072;-83
2024/04/16 12:23:33;;;;;;;2.80;1.00;;;;;;;8.96;60.72;99445.00;9076789;26;20005;-84
2024/04/16 12:27:35;;;;;;;3.20;1.15;;;;;;;8.92;61.55;99449.09;9076676;26;20002;-83
2024/04/16 12:31:37;;;;;;;12.32;1.17;;;;;;;8.84;65.36;99464.44;9070691;26;20013;-83
2024/04/16 12:35:39;;;;;;;6.10;1.20;;;;;;;7.91;78.35;99477.03;9049933;26;20003;-82
2024/04/16 12:39:40;;;;;;;5.63;1.50;;;;;;;7.52;88.85;99483.59;9057787;26;20013;-84
2024/04/16 12:43:42;;;;;;;5.50;1.80;;;;;;;7.27;98.59;99479.59;9069173;26;20002;-83
2024/04/16 12:47:44;;;;;;;2.28;1.20;;;;;;;7.34;95.97;99461.03;9120051;26;20002;-82
2024/04/16 12:51:46;;;;;;;3.55;1.35;;;;;;;7.75;92.52;99464.78;9120214;26;20006;-83
2024/04/16 12:55:47;;;;;;;6.25;1.77;;;;;;;8.11;87.81;99469.22;9078853;26;20408;-83
2024/04/16 12:59:52;;;;;;;3.80;1.63;;;;;;;8.26;82.33;99458.47;9105807;26;20002;-84
2024/04/16 13:03:53;;;;;;;3.03;1.30;;;;;;;8.63;81.54;99470.69;9101934;26;20438;-84
2024/04/16 13:07:55;;;;;;;3.50;1.27;;;;;;;8.79;75.92;99458.88;9101858;26;20018;-83
2024/04/16 13:11:57;;;;;;;2.45;1.05;;;;;;;8.79;69.26;99456.19;9073161;26;19998;-84
2024/04/16 13:16:02;;;;;;;2.40;1.20;;;;;;;9.24;67.71;99462.81;9068775;26;20022;-84
2024/04/16 13:20:04;;;;;;;3.25;1.23;;;;;;;9.45;67.10;99443.97;9101237;26;19998;-84
2024/04/16 13:24:06;;;;;;;1.55;1.30;;;;;;;9.92;66.48;99458.28;9096404;26;20013;-84
2024/04/16 13:28:09;;;;;;;8.88;5.03;;;;;;;10.61;65.04;99449.88;9063143;26;20030;-85
2024/04/16 13:32:10;;;;;;;2.15;1.40;;;;;;;9.74;63.27;99453.53;9094798;26;20452;-83
2024/04/16 13:36:12;;;;;;;2.75;1.30;;;;;;;9.36;65.49;99459.34;9066194;26;20062;-85
2024/04/16 13:40:14;;;;;;;4.28;1.30;;;;;;;9.55;64.79;99463.16;9101668;26;20017;-86
2024/04/16 13:44:16;;;;;;;5.55;1.63;;;;;;;9.61;64.67;99454.31;9063291;26;20026;-85
2024/04/16 13:48:18;;;;;;;5.88;1.67;;;;;;;9.59;64.21;99458.22;9062877;26;20010;-83
2024/04/16 13:52:19;;;;;;;1.92;1.27;;;;;;;9.80;62.54;99454.56;9063939;26;19994;-83
2024/04/16 13:56:21;;;;;;;3.22;1.23;;;;;;;9.39;60.35;99446.63;9097313;26;20012;-85
2024/04/16 14:00:23;;;;;;;2.15;1.08;;;;;;;9.64;60.97;99451.22;9068870;26;20522;-85
2024/04/16 14:04:25;;;;;;;12.00;1.67;;;;;;;10.04;61.16;99445.13;9099814;26;20333;-84
2024/04/16 14:08:27;;;;;;;2.20;1.40;;;;;;;10.01;59.73;99432.97;9101625;26;20001;-83
2024/04/16 14:12:29;;;;;;;2.67;1.10;;;;;;;10.53;58.25;99432.16;9068884;26;20002;-84
2024/04/16 14:16:30;;;;;;;2.83;1.13;;;;;;;9.86;59.15;99438.50;9068444;26;20470;-83
2024/04/16 14:20:32;;;;;;;3.70;1.25;;;;;;;10.18;60.28;99438.75;9100578;26;20006;-84
2024/04/16 14:24:37;;;;;;;4.05;1.00;;;;;;;9.96;62.01;99451.50;9068321;26;19998;-84
2024/04/16 14:28:39;;;;;;;2.92;1.70;;;;;;;10.09;63.18;99466.75;9068771;26;20034;-83
2024/04/16 14:32:41;;;;;;;3.60;1.70;;;;;;;9.82;62.48;99460.53;9100613;26;19998;-85
2024/04/16 14:36:43;;;;;;;4.15;1.40;;;;;;;9.78;63.38;99467.31;9102379;26;20474;-84
2024/04/16 14:40:45;;;;;;;3.00;1.42;;;;;;;10.32;64.62;99463.69;9070005;26;20502;-84
2024/04/16 14:44:47;;;;;;;3.88;1.63;;;;;;;9.88;63.51;99465.88;9074977;26;20334;-83
2024/04/16 14:48:50;;;;;;;1.73;1.30;;;;;;;10.01;62.76;99461.59;9118587;26;19998;-85
2024/04/16 14:52:53;;;;;;;2.70;1.65;;;;;;;10.33;62.85;99457.31;9076467;26;20403;-85
2024/04/16 14:56:55;;;;;;;2.50;1.10;;;;;;;10.98;61.11;99445.69;9100462;26;20005;-85
2024/04/16 15:00:57;;;;;;;1.63;1.05;;;;;;;11.14;59.43;99452.44;9069036;26;20002;-85
2024/04/16 15:05:01;;;;;;;2.20;1.40;;;;;;;11.50;58.66;99451.06;9073384;26;20018;-85
2024/04/16 15:09:03;;;;;;;2.67;1.20;;;;;;;10.43;58.53;99458.56;9073169;26;20452;-84
2024/04/16 15:13:07;;;;;;;3.85;1.27;;;;;;;10.32;59.19;99450.31;9104341;26;20042;-84
2024/04/16 15:17:09;;;;;;;2.33;1.08;;;;;;;10.54;58.28;99462.44;9071683;26;20017;-84
2024/04/16 15:21:11;;;;;;;1.60;1.20;;;;;;;10.80;58.18;99470.47;9087073;26;20013;-84
2024/04/16 15:25:14;;;;;;;2.03;1.27;;;;;;;10.93;57.42;99458.88;9087395;26;20014;-84
2024/04/16 15:29:16;;;;;;;1.80;1.10;;;;;;;10.84;56.07;99474.38;9118556;26;19994;-85
2024/04/16 15:33:20;;;;;;;2.50;1.33;;;;;;;11.56;56.64;99466.28;9086523;26;20009;-84
2024/04/16 15:37:22;;;;;;;2.72;1.27;;;;;;;11.71;56.10;99466.81;9083771;26;20044;-85
2024/04/16 15:41:24;;;;;;;3.17;1.52;;;;;;;11.59;56.36;99471.22;9080743;26;20043;-79
2024/04/16 15:45:27;;;;;;;2.47;1.30;;;;;;;11.08;54.82;99467.50;9102292;26;20033;-80
2024/04/16 15:49:29;;;;;;;3.80;1.50;;;;;;;11.25;56.68;99469.69;9068991;26;20026;-79
2024/04/16 15:53:31;;;;;;;3.35;1.50;;;;;;;11.14;57.49;99479.25;9111210;26;19998;-81
2024/04/16 15:57:32;;;;;;;3.83;1.65;;;;;;;11.31;55.03;99472.38;9109137;26;20006;-81
2024/04/16 16:01:34;;;;;;;4.07;1.88;;;;;;;10.97;55.88;99486.91;9075813;26;20453;-81
2024/04/16 16:05:36;;;;;;;2.65;1.67;;;;;;;10.76;57.03;99492.50;9105994;26;20006;-81
2024/04/16 16:09:38;;;;;;;3.88;2.08;;;;;;;10.67;57.63;99477.69;9107125;26;20029;-82
2024/04/16 16:13:42;;;;;;;3.83;1.77;;;;;;;10.61;57.38;99490.06;9075467;26;20013;-82
2024/04/16 16:17:44;;;;;;;5.43;2.40;;;;;;;10.60;59.34;99487.59;9104751;26;20013;-82
2024/04/16 16:21:46;;;;;;;2.63;1.90;;;;;;;10.29;60.13;99497.06;9073249;26;20017;-82
2024/04/16 16:25:49;;;;;;;4.80;2.42;;;;;;;10.51;62.43;99500.34;9105517;26;20006;-82
2024/04/16 16:29:51;;;;;;;3.85;1.83;;;;;;;10.50;63.62;99499.53;9117891;26;20002;-82
2024/04/16 16:33:53;;;;;;;3.67;1.98;;;;;;;10.36;63.65;99513.94;9114984;26;19998;-82
2024/04/16 16:37:55;;;;;;;2.60;1.67;;;;;;;9.95;62.01;99527.44;9109192;26;21573;-81
2024/04/16 16:41:56;;;;;;;4.43;1.70;;;;;;;9.93;64.11;99529.50;9107961;26;20003;-81
2024/04/16 16:46:02;;;;;;;3.05;2.20;;;;;;;10.00;66.49;99541.03;9109850;26;20002;-81
2024/04/16 16:50:04;;;;;;;3.95;1.60;;;;;;;9.50;67.79;99548.47;9107548;26;20010;-81
2024/04/16 16:54:07;;;;;;;3.15;1.98;;;;;;;9.14;71.99;99546.00;9107983;26;19998;-81
2024/04/16 16:58:09;;;;;;;2.47;1.20;;;;;;;9.18;74.58;99547.25;9076507;26;20025;-81
2024/04/16 17:02:10;;;;;;;4.57;1.42;;;;;;;8.81;77.98;99548.47;9107063;26;20018;-81
2024/04/16 17:06:13;;;;;;;1.92;1.33;;;;;;;8.70;79.82;99551.69;9075625;26;20002;-81
2024/04/16 17:10:15;;;;;;;1.83;1.20;;;;;;;8.52;82.51;99559.34;9107261;26;20078;-81
2024/04/16 17:14:16;;;;;;;3.80;1.55;;;;;;;8.42;84.99;99565.81;9106554;26;20013;-83
2024/04/16 17:18:18;;;;;;;3.15;1.30;;;;;;;8.37;87.75;99560.22;9106508;26;19998;-81
2024/04/16 17:22:20;;;;;;;1.42;1.17;;;;;;;7.88;91.45;99559.28;9105936;26;20493;-81
2024/04/16 17:26:22;;;;;;;2.30;1.20;;;;;;;7.97;93.93;99564.28;9107656;26;20384;-81
2024/04/16 17:30:24;;;;;;;3.95;1.48;;;;;;;8.21;94.40;99575.63;9107357;26;20002;-81
2024/04/16 17:34:26;;;;;;;5.50;3.65;;;;;;;8.03;97.15;99581.41;9112823;26;20009;-82
2024/04/16 17:38:28;;;;;;;3.00;1.75;;;;;;;8.17;97.51;99591.19;9109702;26;20063;-83
2024/04/16 17:42:30;;;;;;;6.00;4.10;;;;;;;7.95;100.00;99592.16;9108039;26;20018;-82
2024/04/16 17:46:32;;;;;;;7.45;2.38;;;;;;;7.94;100.00;99602.00;9108370;26;20014;-82
2024/04/16 17:50:34;;;;;;;3.92;1.90;;;;;;;8.01;100.00;99602.09;9107883;26;20020;-81
2024/04/16 17:54:36;;;;;;;3.63;2.17;;;;;;;7.81;100.00;99615.22;9109852;26;20019;-80
2024/04/16 17:58:39;;;;;;;2.25;1.73;;;;;;;7.99;100.00;99620.97;9112477;26;20006;-80
2024/04/16 18:02:45;;;;;;;4.85;1.83;;;;;;;7.89;100.00;99623.09;9112363;26;20051;-80
2024/04/16 18:06:47;;;;;;;7.03;2.45;;;;;;;7.95;100.00;99634.84;9115111;26;19998;-82
2024/04/16 18:10:50;;;;;;;3.35;1.73;;;;;;;7.45;100.00;99639.09;9114555;26;20002;-80
2024/04/16 18:14:52;;;;;;;2.65;1.63;;;;;;;7.54;100.00;99643.34;9083330;26;20003;-79
2024/04/16 18:18:54;;;;;;;2.70;1.85;;;;;;;7.58;100.00;99649.97;9034995;26;19998;-79
2024/04/16 18:22:55;;;;;;;1.73;1.35;;;;;;;7.49;100.00;99662.56;9053976;26;20051;-78
2024/04/16 18:26:57;;;;;;;5.15;2.75;;;;;;;7.48;100.00;99663.56;9024566;26;20007;-79
2024/04/16 18:30:59;;;;;;;3.17;1.40;;;;;;;7.26;100.00;99685.75;9059773;26;20006;-79
2024/04/16 18:35:01;;;;;;;3.83;2.50;;;;;;;7.48;100.00;99692.91;9118673;26;20052;-81
2024/04/16 18:39:02;;;;;;;4.20;1.42;;;;;;;7.26;100.00;99710.56;9089001;26;20013;-79
2024/04/16 18:43:04;;;;;;;4.38;1.20;;;;;;;7.43;100.00;99713.91;9124007;26;20012;-82
2024/04/16 18:47:07;;;;;;;1.90;1.20;;;;;;;7.38;100.00;99712.81;9092000;26;20002;-81
2024/04/16 18:51:08;;;;;;;2.35;1.25;;;;;;;7.38;100.00;99723.47;9122444;26;20005;-80
2024/04/16 18:55:10;;;;;;;1.17;0.93;;;;;;;7.32;100.00;99726.88;9087286;26;20356;-82
2024/04/16 18:59:12;;;;;;;1.20;0.90;;;;;;;7.00;100.00;99735.94;9118685;26;20014;-81
2024/04/16 19:03:14;;;;;;;1.33;0.93;;;;;;;7.29;100.00;99732.53;9119069;26;20003;-82
2024/04/16 19:07:19;;;;;;;2.78;1.40;;;;;;;7.29;100.00;99729.88;9115173;26;20055;-82
2024/04/16 19:11:21;;;;;;;1.92;1.10;;;;;;;7.30;100.00;99736.88;9115013;26;20490;-82